createdAt,value
2018-09-22T00:00:28.932Z,1.70
2018-09-22T00:02:57.788Z,2.03
2018-09-22T00:05:26.630Z,1.60
2018-09-22T00:07:55.484Z,1.67
2018-09-22T00:10:24.391Z,1.73
2018-09-22T00:12:53.277Z,2.23
2018-09-22T00:15:22.137Z,1.77
2018-09-22T00:17:50.959Z,1.63
2018-09-22T00:20:19.838Z,2.55
2018-09-22T00:22:48.685Z,1.73
2018-09-22T00:25:17.519Z,1.53
2018-09-22T00:27:46.398Z,2.00
2018-09-22T00:30:15.238Z,1.87
2018-09-22T00:32:44.318Z,2.20
2018-09-22T00:35:13.253Z,2.00
2018-09-22T00:37:42.012Z,1.80
2018-09-22T00:40:10.858Z,1.83
2018-09-22T00:42:39.758Z,2.00
2018-09-22T00:45:08.621Z,2.30
2018-09-22T00:47:37.434Z,2.00
2018-09-22T00:50:06.293Z,2.55
2018-09-22T00:52:35.120Z,2.10
2018-09-22T00:55:03.973Z,2.40
2018-09-22T00:57:32.797Z,2.20
2018-09-22T01:00:01.626Z,2.65
2018-09-22T01:02:30.707Z,2.10
2018-09-22T01:04:59.531Z,1.80
2018-09-22T01:07:28.372Z,2.17
2018-09-22T01:09:57.201Z,2.70
2018-09-22T01:12:26.017Z,1.73
2018-09-22T01:14:54.825Z,1.70
2018-09-22T01:17:23.670Z,1.70
2018-09-22T01:19:52.512Z,1.97
2018-09-22T01:22:21.384Z,1.83
2018-09-22T01:24:50.211Z,2.10
2018-09-22T01:27:19.030Z,1.70
2018-09-22T01:29:47.861Z,1.90
2018-09-22T01:32:16.702Z,2.20
2018-09-22T01:34:45.567Z,2.10
2018-09-22T01:37:14.419Z,1.97
2018-09-22T01:39:43.325Z,1.90
2018-09-22T01:42:12.190Z,2.10
2018-09-22T01:44:41.016Z,2.00
2018-09-22T01:47:09.858Z,2.22
2018-09-22T01:49:38.731Z,2.13
2018-09-22T01:52:07.553Z,1.73
2018-09-22T01:54:36.391Z,1.90
2018-09-22T01:57:05.232Z,2.53
2018-09-22T01:59:34.121Z,2.03
2018-09-22T02:02:02.988Z,2.03
2018-09-22T02:04:31.807Z,2.00
2018-09-22T02:07:00.657Z,2.17
2018-09-22T02:09:29.501Z,1.77
2018-09-22T02:11:58.380Z,2.30
2018-09-22T02:14:27.185Z,2.07
2018-09-22T02:16:56.017Z,2.10
2018-09-22T02:19:24.852Z,1.80
2018-09-22T02:21:53.674Z,2.33
2018-09-22T02:24:22.521Z,2.50
2018-09-22T02:26:51.375Z,1.93
2018-09-22T02:29:20.220Z,2.13
2018-09-22T02:31:49.065Z,2.40
2018-09-22T02:34:17.954Z,2.40
2018-09-22T02:36:46.780Z,2.90
2018-09-22T02:39:15.662Z,2.17
2018-09-22T02:41:44.490Z,2.57
2018-09-22T02:44:13.369Z,2.50
2018-09-22T02:46:42.235Z,2.53
2018-09-22T02:49:11.119Z,2.73
2018-09-22T02:51:39.961Z,2.50
2018-09-22T02:54:08.805Z,2.20
2018-09-22T02:56:37.641Z,2.40
2018-09-22T02:59:06.747Z,2.60
2018-09-22T03:01:35.599Z,2.40
2018-09-22T03:04:04.439Z,2.20
2018-09-22T03:06:33.293Z,2.97
2018-09-22T03:09:02.121Z,2.70
2018-09-22T03:11:30.957Z,2.33
2018-09-22T03:13:59.804Z,2.60
2018-09-22T03:16:28.658Z,2.70
2018-09-22T03:18:57.501Z,2.50
2018-09-22T03:21:26.373Z,2.20
2018-09-22T03:23:55.189Z,2.60
2018-09-22T03:26:24.127Z,2.40
2018-09-22T03:28:53.060Z,2.20
2018-09-22T03:31:21.955Z,2.50
2018-09-22T03:33:50.906Z,1.87
2018-09-22T03:36:19.822Z,2.50
2018-09-22T03:38:48.714Z,2.83
2018-09-22T03:41:17.577Z,2.50
2018-09-22T03:43:46.516Z,2.63
2018-09-22T03:46:15.331Z,2.47
2018-09-22T03:48:44.219Z,2.95
2018-09-22T03:51:13.005Z,2.30
2018-09-22T03:53:41.874Z,2.50
2018-09-22T03:56:10.693Z,2.27
2018-09-22T03:58:39.550Z,2.80
2018-09-22T04:01:08.371Z,2.77
2018-09-22T04:03:37.302Z,2.63
2018-09-22T04:06:06.113Z,2.17
2018-09-22T04:08:34.951Z,2.50
2018-09-22T04:11:03.787Z,2.95
2018-09-22T04:13:32.646Z,2.57
2018-09-22T04:16:01.518Z,2.60
2018-09-22T04:18:30.639Z,3.17
2018-09-22T04:20:59.461Z,2.50
2018-09-22T04:23:28.380Z,3.00
2018-09-22T04:25:57.227Z,2.60
2018-09-22T04:28:26.047Z,2.40
2018-09-22T04:30:54.908Z,2.63
2018-09-22T04:33:23.789Z,3.22
2018-09-22T04:35:52.628Z,2.70
2018-09-22T04:38:21.451Z,2.30
2018-09-22T04:40:50.296Z,2.40
2018-09-22T04:43:19.129Z,2.90
2018-09-22T04:45:47.975Z,2.60
2018-09-22T04:48:16.823Z,2.37
2018-09-22T04:50:45.649Z,3.17
2018-09-22T04:53:14.475Z,2.87
2018-09-22T04:55:43.305Z,2.70
2018-09-22T04:58:12.142Z,3.22
2018-09-22T05:00:41.007Z,2.90
2018-09-22T05:03:09.884Z,2.57
2018-09-22T05:05:38.719Z,3.47
2018-09-22T05:08:07.724Z,2.67
2018-09-22T05:10:36.588Z,2.70
2018-09-22T05:13:05.449Z,2.67
2018-09-22T05:15:34.275Z,2.63
2018-09-22T05:18:03.123Z,3.23
2018-09-22T05:20:31.993Z,2.70
2018-09-22T05:23:00.829Z,2.30
2018-09-22T05:25:29.691Z,3.17
2018-09-22T05:27:58.598Z,2.87
2018-09-22T05:30:27.440Z,2.80
2018-09-22T05:32:56.279Z,2.73
2018-09-22T05:35:25.172Z,2.80
2018-09-22T05:37:53.982Z,2.67
2018-09-22T05:40:22.844Z,2.90
2018-09-22T05:42:51.677Z,2.67
2018-09-22T05:45:20.556Z,2.80
2018-09-22T05:47:49.377Z,2.87
2018-09-22T05:50:18.241Z,3.00
2018-09-22T05:52:47.067Z,3.30
2018-09-22T05:55:15.935Z,3.20
2018-09-22T05:57:44.775Z,3.23
2018-09-22T06:00:13.632Z,3.33
2018-09-22T06:02:42.474Z,3.92
2018-09-22T06:05:11.287Z,3.40
2018-09-22T06:07:40.248Z,3.47
2018-09-22T06:10:09.058Z,3.60
2018-09-22T06:12:38.005Z,3.83
2018-09-22T06:15:06.887Z,3.83
2018-09-22T06:17:35.716Z,3.63
2018-09-22T06:20:04.623Z,4.00
2018-09-22T06:22:33.472Z,3.63
2018-09-22T06:25:02.325Z,3.10
2018-09-22T06:27:31.169Z,3.37
2018-09-22T06:30:00.002Z,3.20
2018-09-22T06:32:28.823Z,3.43
2018-09-22T06:34:57.636Z,3.53
2018-09-22T06:37:26.514Z,3.40
2018-09-22T06:39:55.286Z,4.25
2018-09-22T06:42:24.116Z,3.43
2018-09-22T06:44:52.996Z,3.67
2018-09-22T06:47:21.836Z,3.83
2018-09-22T06:49:50.676Z,4.37
2018-09-22T06:52:19.508Z,3.97
2018-09-22T06:54:48.392Z,3.37
2018-09-22T06:57:17.229Z,3.60
2018-09-22T06:59:46.048Z,3.83
2018-09-22T07:02:15.019Z,3.97
2018-09-22T07:04:43.873Z,3.80
2018-09-22T07:07:12.717Z,3.97
2018-09-22T07:09:41.554Z,3.53
2018-09-22T07:12:10.402Z,3.10
2018-09-22T07:14:39.262Z,3.87
2018-09-22T07:17:08.109Z,4.23
2018-09-22T07:19:36.986Z,4.30
2018-09-22T07:22:23.442Z,3.67
2018-09-22T07:24:52.250Z,3.67
2018-09-22T07:27:21.075Z,4.70
2018-09-22T07:29:49.915Z,4.37
2018-09-22T07:32:18.840Z,3.60
2018-09-22T07:34:47.722Z,3.63
2018-09-22T07:37:16.600Z,4.00
2018-09-22T07:39:45.424Z,3.63
2018-09-22T07:42:14.264Z,4.07
2018-09-22T07:44:43.103Z,3.27
2018-09-22T07:47:11.971Z,3.47
2018-09-22T07:49:40.930Z,3.73
2018-09-22T07:52:09.752Z,3.90
2018-09-22T07:54:38.576Z,3.73
2018-09-22T07:57:07.458Z,3.93
2018-09-22T07:59:36.313Z,4.07
2018-09-22T08:02:05.265Z,3.73
2018-09-22T08:04:34.098Z,3.47
2018-09-22T08:07:02.972Z,3.60
2018-09-22T08:09:31.837Z,4.23
2018-09-22T08:12:00.653Z,4.37
2018-09-22T08:14:29.492Z,4.23
2018-09-22T08:16:58.354Z,3.47
2018-09-22T08:19:27.184Z,3.73
2018-09-22T08:21:56.014Z,4.95
2018-09-22T08:24:24.843Z,4.37
2018-09-22T08:26:53.725Z,3.30
2018-09-22T08:29:22.595Z,4.37
2018-09-22T08:31:51.418Z,3.70
2018-09-22T08:34:20.276Z,3.60
2018-09-22T08:36:49.344Z,3.77
2018-09-22T08:39:17.985Z,3.87
2018-09-22T08:41:46.971Z,4.33
2018-09-22T08:44:15.805Z,4.17
2018-09-22T08:46:44.632Z,3.40
2018-09-22T08:49:13.508Z,3.70
2018-09-22T08:51:42.339Z,3.60
2018-09-22T08:54:11.214Z,3.80
2018-09-22T08:56:40.061Z,4.00
2018-09-22T08:59:08.883Z,3.60
2018-09-22T09:01:37.713Z,3.93
2018-09-22T09:04:06.561Z,3.50
2018-09-22T09:06:35.405Z,3.70
2018-09-22T09:09:05.198Z,3.13
2018-09-22T09:11:34.049Z,3.60
2018-09-22T09:14:02.972Z,3.53
2018-09-22T09:16:31.814Z,3.70
2018-09-22T09:19:00.687Z,3.10
2018-09-22T09:21:29.523Z,3.57
2018-09-22T09:23:58.362Z,2.80
2018-09-22T09:26:27.199Z,3.23
2018-09-22T09:28:56.060Z,3.83
2018-09-22T09:31:24.912Z,3.27
2018-09-22T09:33:53.757Z,3.20
2018-09-22T09:36:22.619Z,3.30
2018-09-22T09:38:55.995Z,3.58
2018-09-22T09:41:24.836Z,2.90
2018-09-22T09:43:53.660Z,2.77
2018-09-22T09:46:22.546Z,3.12
2018-09-22T09:48:51.400Z,3.12
2018-09-22T09:51:20.313Z,3.25
2018-09-22T09:53:49.196Z,3.30
2018-09-22T09:56:18.201Z,3.30
2018-09-22T09:58:47.053Z,2.98
2018-09-22T10:01:15.874Z,3.20
2018-09-22T10:03:44.706Z,3.05
2018-09-22T10:06:13.534Z,3.20
2018-09-22T10:08:42.448Z,3.10
2018-09-22T10:11:11.304Z,3.40
2018-09-22T10:13:40.186Z,2.65
2018-09-22T10:16:09.006Z,3.30
2018-09-22T10:18:37.859Z,2.72
2018-09-22T10:21:06.726Z,2.98
2018-09-22T10:23:35.567Z,2.80
2018-09-22T10:26:04.404Z,2.52
2018-09-22T10:28:33.303Z,2.62
2018-09-22T10:31:02.116Z,2.72
2018-09-22T10:33:30.932Z,2.77
2018-09-22T10:35:59.793Z,3.12
2018-09-22T10:38:28.650Z,2.80
2018-09-22T10:40:57.473Z,2.65
2018-09-22T10:43:26.308Z,2.53
2018-09-22T10:45:55.207Z,2.47
2018-09-22T10:48:24.085Z,2.90
2018-09-22T10:50:52.915Z,3.00
2018-09-22T10:53:21.748Z,3.10
2018-09-22T10:55:50.582Z,2.40
2018-09-22T10:58:19.441Z,2.77
2018-09-22T11:00:48.223Z,3.00
2018-09-22T11:03:17.145Z,3.00
2018-09-22T11:05:45.906Z,2.47
2018-09-22T11:08:14.754Z,3.10
2018-09-22T11:10:43.593Z,2.60
2018-09-22T11:13:12.456Z,2.87
2018-09-22T11:15:41.287Z,3.07
2018-09-22T11:18:10.114Z,2.90
2018-09-22T11:20:38.928Z,3.23
2018-09-22T11:23:07.804Z,2.33
2018-09-22T11:25:36.635Z,3.47
2018-09-22T11:28:05.696Z,2.90
2018-09-22T11:30:34.547Z,2.93
2018-09-22T11:33:03.395Z,3.02
2018-09-22T11:35:32.273Z,2.70
2018-09-22T11:38:01.089Z,2.87
2018-09-22T11:40:29.921Z,2.33
2018-09-22T11:42:58.855Z,2.50
2018-09-22T11:45:27.687Z,2.30
2018-09-22T11:47:56.557Z,2.23
2018-09-22T11:50:25.354Z,2.53
2018-09-22T11:52:54.209Z,2.70
2018-09-22T11:55:23.057Z,3.00
2018-09-22T11:57:51.891Z,2.97
2018-09-22T12:00:20.727Z,2.40
2018-09-22T12:02:49.589Z,2.98
2018-09-22T12:05:18.417Z,2.30
2018-09-22T12:07:47.243Z,3.03
2018-09-22T12:10:16.423Z,3.10
2018-09-22T12:12:45.730Z,2.70
2018-09-22T12:15:15.206Z,3.30
2018-09-22T12:17:44.245Z,3.25
2018-09-22T12:20:13.274Z,2.60
2018-09-22T12:22:42.451Z,3.33
2018-09-22T12:25:11.710Z,2.97
2018-09-22T12:27:41.156Z,2.83
2018-09-22T12:30:12.596Z,3.70
2018-09-22T12:32:44.696Z,3.90
2018-09-22T12:35:14.083Z,4.47
2018-09-22T12:37:43.271Z,3.20
2018-09-22T12:40:12.362Z,2.30
2018-09-22T12:42:41.687Z,2.80
2018-09-22T12:45:12.371Z,2.73
2018-09-22T12:47:39.957Z,2.90
2018-09-22T12:50:11.620Z,2.47
2018-09-22T12:52:40.745Z,2.17
2018-09-22T12:55:09.826Z,1.90
2018-09-22T12:57:38.909Z,1.80
2018-09-22T13:00:08.050Z,1.70
2018-09-22T13:02:37.104Z,1.93
2018-09-22T13:05:06.282Z,1.90
2018-09-22T13:07:38.236Z,1.60
2018-09-22T13:10:07.351Z,1.90
2018-09-22T13:12:36.509Z,1.50
2018-09-22T13:15:05.775Z,1.40
2018-09-22T13:17:34.747Z,1.40
2018-09-22T13:20:04.026Z,1.50
2018-09-22T13:22:33.362Z,1.30
2018-09-22T13:25:02.375Z,1.30
2018-09-22T13:27:31.655Z,1.43
2018-09-22T13:30:00.903Z,1.60
2018-09-22T13:32:30.184Z,1.30
2018-09-22T13:34:59.491Z,1.57
2018-09-22T13:37:28.577Z,1.77
2018-09-22T13:39:57.661Z,1.67
2018-09-22T13:42:26.827Z,1.20
2018-09-22T13:44:56.047Z,1.30
2018-09-22T13:47:25.190Z,1.30
2018-09-22T13:49:55.877Z,1.50
2018-09-22T13:52:25.982Z,1.47
2018-09-22T13:54:57.750Z,1.70
2018-09-22T13:57:26.771Z,1.53
2018-09-22T13:59:56.108Z,1.60
2018-09-22T14:02:25.194Z,1.50
2018-09-22T14:04:54.753Z,1.37
2018-09-22T14:07:23.744Z,1.40
2018-09-22T14:09:52.995Z,1.73
2018-09-22T14:12:24.715Z,1.50
2018-09-22T14:14:56.782Z,1.67
2018-09-22T14:17:25.836Z,1.60
2018-09-22T14:19:54.982Z,1.60
2018-09-22T14:22:27.302Z,1.67
2018-09-22T14:25:01.733Z,1.70
2018-09-22T14:27:33.561Z,1.60
2018-09-22T14:30:02.800Z,1.73
2018-09-22T14:32:32.011Z,2.03
2018-09-22T14:35:01.594Z,1.70
2018-09-22T14:37:30.939Z,1.47
2018-09-22T14:39:59.949Z,1.63
2018-09-22T14:42:29.044Z,1.60
2018-09-22T14:44:58.126Z,2.17
2018-09-22T14:47:27.237Z,1.53
2018-09-22T14:49:56.279Z,1.60
2018-09-22T14:52:25.441Z,1.77
2018-09-22T14:54:55.504Z,1.73
2018-09-22T14:57:25.661Z,1.40
2018-09-22T14:59:54.756Z,2.10
2018-09-22T15:02:26.777Z,1.70
2018-09-22T15:04:56.351Z,2.20
2018-09-22T15:07:25.428Z,1.90
2018-09-22T15:09:54.723Z,2.10
2018-09-22T15:12:23.878Z,1.90
2018-09-22T15:14:53.006Z,1.70
2018-09-22T15:17:22.219Z,1.60
2018-09-22T15:19:51.585Z,1.60
2018-09-22T15:22:20.691Z,1.63
2018-09-22T15:24:49.984Z,2.00
2018-09-22T15:27:19.312Z,1.80
2018-09-22T15:29:48.400Z,3.03
2018-09-22T15:32:17.498Z,1.80
2018-09-22T15:34:46.600Z,1.87
2018-09-22T15:37:15.472Z,1.80
2018-09-22T15:39:44.753Z,1.60
2018-09-22T15:42:15.980Z,2.07
2018-09-22T15:44:45.111Z,1.67
2018-09-22T15:47:14.447Z,2.10
2018-09-22T15:49:44.072Z,2.30
2018-09-22T15:52:14.381Z,1.77
2018-09-22T15:54:43.764Z,1.90
2018-09-22T15:57:13.232Z,1.90
2018-09-22T15:59:42.528Z,2.17
2018-09-22T16:02:11.651Z,1.90
2018-09-22T16:04:40.817Z,2.00
2018-09-22T16:07:09.944Z,2.10
2018-09-22T16:09:43.855Z,2.17
2018-09-22T16:12:16.351Z,2.03
2018-09-22T16:14:52.897Z,2.23
2018-09-22T16:17:20.945Z,2.30
2018-09-22T16:19:51.328Z,1.90
2018-09-22T16:22:20.553Z,2.23
2018-09-22T16:24:49.868Z,2.53
2018-09-22T16:27:19.052Z,2.30
2018-09-22T16:29:48.155Z,2.50
2018-09-22T16:32:17.287Z,2.37
2018-09-22T16:34:49.444Z,2.50
2018-09-22T16:37:18.543Z,2.57
2018-09-22T16:39:47.877Z,2.90
2018-09-22T16:42:21.675Z,2.70
2018-09-22T16:44:49.760Z,2.90
2018-09-22T16:47:18.945Z,2.80
2018-09-22T16:49:50.573Z,3.30
2018-09-22T16:52:19.701Z,3.20
2018-09-22T16:54:48.966Z,2.80
2018-09-22T16:57:18.163Z,3.13
2018-09-22T16:59:47.180Z,3.40
2018-09-22T17:02:16.288Z,3.17
2018-09-22T17:04:45.330Z,3.07
2018-09-22T17:07:14.547Z,3.50
2018-09-22T17:09:44.187Z,3.40
2018-09-22T17:12:21.261Z,3.83
2018-09-22T17:14:50.505Z,3.87
2018-09-22T17:17:19.842Z,4.40
2018-09-22T17:19:51.991Z,4.87
2018-09-22T17:22:20.946Z,3.57
2018-09-22T17:24:50.438Z,4.30
2018-09-22T17:27:22.754Z,5.03
2018-09-22T17:29:51.883Z,4.60
2018-09-22T17:32:20.995Z,3.90
2018-09-22T17:34:50.378Z,4.27
2018-09-22T17:37:22.353Z,4.70
2018-09-22T17:39:51.686Z,5.10
2018-09-22T17:42:23.873Z,4.20
2018-09-22T17:44:55.668Z,4.13
2018-09-22T17:47:25.070Z,3.90
2018-09-22T17:49:54.353Z,3.80
2018-09-22T17:52:24.900Z,3.77
2018-09-22T17:54:56.795Z,3.70
2018-09-22T17:57:28.727Z,4.33
2018-09-22T17:59:59.762Z,4.07
2018-09-22T18:02:29.042Z,3.43
2018-09-22T18:04:58.111Z,3.10
2018-09-22T18:07:27.240Z,3.17
2018-09-22T18:09:56.325Z,4.20
2018-09-22T18:12:25.401Z,3.47
2018-09-22T18:14:54.611Z,3.80
2018-09-22T18:17:23.706Z,3.60
2018-09-22T18:19:53.145Z,4.20
2018-09-22T18:22:23.019Z,3.70
2018-09-22T18:24:53.914Z,3.60
2018-09-22T18:27:23.229Z,3.47
2018-09-22T18:29:52.430Z,3.70
2018-09-22T18:32:21.543Z,3.83
2018-09-22T18:34:50.889Z,3.57
2018-09-22T18:37:20.037Z,4.90
2018-09-22T18:39:49.173Z,4.03
2018-09-22T18:42:25.854Z,4.30
2018-09-22T18:44:54.875Z,3.87
2018-09-22T18:47:24.325Z,4.70
2018-09-22T18:49:55.615Z,3.93
2018-09-22T18:52:32.408Z,4.87
2018-09-22T18:55:04.105Z,4.33
2018-09-22T18:57:33.305Z,5.00
2018-09-22T19:00:02.468Z,4.70
2018-09-22T19:02:31.537Z,5.53
2018-09-22T19:05:00.688Z,5.80
2018-09-22T19:07:32.779Z,6.00
2018-09-22T19:10:07.648Z,5.53
2018-09-22T19:12:36.717Z,5.47
2018-09-22T19:15:30.986Z,6.30
2018-09-22T19:18:11.262Z,6.03
2018-09-22T19:20:56.306Z,6.73
2018-09-22T19:23:31.091Z,6.93
2018-09-22T19:26:08.217Z,7.10
2018-09-22T19:28:41.281Z,6.60
2018-09-22T19:31:14.050Z,7.23
2018-09-22T19:33:54.626Z,7.57
2018-09-22T19:36:45.767Z,8.23
2018-09-22T19:39:33.828Z,7.67
2018-09-22T19:42:11.835Z,8.43
2018-09-22T19:45:02.713Z,8.00
2018-09-22T19:47:40.687Z,8.40
2018-09-22T19:50:11.964Z,9.30
2018-09-22T19:52:59.137Z,8.43
2018-09-22T19:55:28.209Z,9.30
2018-09-22T19:57:57.329Z,8.87
2018-09-22T20:00:26.576Z,9.63
2018-09-22T20:02:55.603Z,9.53
2018-09-22T20:05:27.285Z,9.20
2018-09-22T20:08:03.474Z,9.47
2018-09-22T20:10:35.740Z,10.03
2018-09-22T20:13:04.975Z,10.20
2018-09-22T20:15:36.500Z,11.00
2018-09-22T20:18:05.701Z,10.90
2018-09-22T20:20:37.679Z,10.87
2018-09-22T20:23:04.094Z,11.17
2018-09-22T20:25:33.336Z,11.20
2018-09-22T20:28:05.170Z,11.23
2018-09-22T20:30:34.411Z,10.97
2018-09-22T20:33:03.801Z,11.17
2018-09-22T20:35:32.864Z,11.57
2018-09-22T20:38:02.137Z,11.60
2018-09-22T20:40:33.802Z,12.23
2018-09-22T20:43:03.410Z,12.17
2018-09-22T20:45:32.268Z,12.57
2018-09-22T20:48:01.127Z,15.00
2018-09-22T20:50:29.992Z,13.00
2018-09-22T20:52:58.819Z,12.70
2018-09-22T20:55:27.669Z,12.40
2018-09-22T20:57:56.500Z,11.97
2018-09-22T21:00:25.345Z,13.40
2018-09-22T21:02:54.205Z,12.80
2018-09-22T21:05:23.064Z,15.27
2018-09-22T21:07:51.932Z,13.73
2018-09-22T21:10:20.887Z,13.77
2018-09-22T21:12:49.672Z,14.57
2018-09-22T21:15:18.498Z,14.30
2018-09-22T21:17:47.372Z,14.87
2018-09-22T21:20:16.277Z,13.90
2018-09-22T21:22:45.128Z,14.20
2018-09-22T21:25:14.043Z,14.77
2018-09-22T21:27:42.936Z,14.57
2018-09-22T21:30:11.769Z,18.57
2018-09-22T21:32:40.618Z,15.43
2018-09-22T21:35:09.491Z,15.37
2018-09-22T21:37:38.352Z,15.23
2018-09-22T21:40:07.413Z,19.35
2018-09-22T21:42:36.297Z,16.90
2018-09-22T21:45:05.509Z,16.23
2018-09-22T21:47:34.379Z,16.63
2018-09-22T21:50:03.217Z,16.80
2018-09-22T21:52:32.043Z,16.50
2018-09-22T21:55:00.904Z,15.90
2018-09-22T21:57:29.744Z,19.73
2018-09-22T21:59:58.625Z,16.20
2018-09-22T22:02:27.508Z,16.53
2018-09-22T22:04:56.343Z,15.57
2018-09-22T22:07:25.191Z,15.80
2018-09-22T22:09:54.060Z,17.83
2018-09-22T22:12:22.898Z,16.83
2018-09-22T22:14:51.765Z,17.80
2018-09-22T22:17:20.657Z,17.80
2018-09-22T22:19:49.500Z,18.20
2018-09-22T22:22:18.347Z,18.33
2018-09-22T22:24:47.190Z,17.43
2018-09-22T22:27:16.044Z,17.43
2018-09-22T22:29:44.905Z,17.50
2018-09-22T22:32:13.757Z,16.97
2018-09-22T22:34:42.629Z,17.63
2018-09-22T22:37:11.518Z,16.53
2018-09-22T22:39:40.388Z,16.63
2018-09-22T22:42:09.254Z,17.70
2018-09-22T22:44:38.152Z,17.40
2018-09-22T22:47:07.057Z,17.07
2018-09-22T22:49:35.959Z,16.83
2018-09-22T22:52:04.799Z,18.03
2018-09-22T22:54:33.664Z,18.03
2018-09-22T22:57:02.521Z,17.73
2018-09-22T22:59:31.386Z,17.23
2018-09-22T23:02:00.277Z,17.23
2018-09-22T23:04:29.153Z,20.62
2018-09-22T23:06:57.985Z,17.53
2018-09-22T23:09:26.843Z,17.00
2018-09-22T23:11:55.654Z,15.57
2018-09-22T23:14:24.540Z,16.17
2018-09-22T23:16:53.412Z,15.60
2018-09-22T23:19:22.265Z,15.37
2018-09-22T23:21:51.099Z,18.05
2018-09-22T23:24:19.972Z,15.23
2018-09-22T23:26:48.821Z,15.30
2018-09-22T23:29:17.724Z,13.87
2018-09-22T23:31:46.525Z,13.20
2018-09-22T23:34:15.392Z,14.67
2018-09-22T23:36:44.232Z,14.10
2018-09-22T23:39:13.201Z,14.17
2018-09-22T23:41:42.464Z,14.67
2018-09-22T23:44:11.381Z,13.40
2018-09-22T23:46:40.166Z,14.27
2018-09-22T23:49:09.335Z,14.20
2018-09-22T23:51:38.195Z,14.67
2018-09-22T23:54:07.087Z,14.07
2018-09-22T23:56:35.951Z,13.97
2018-09-22T23:59:04.799Z,13.70
